LRI1139 LFRB-LFBT
Flight info
| Callsign | LRI1139 |
|---|---|
| Flight time | 0h 59m |
| Altitude | 33000 |
| Route | QPR DCT LEGMO DCT GALOF DCT LMB DCT VAKPI DCT CF20 DCT FF20 |
| Aircraft | B77L/H-SDE1E2E3FGHIJ2J3J4J5M1RWXY/LB1D1 |
Departure
| Time | 2026-05-04 19:02 |
|---|---|
| Airport | Brest Bretagne airport (LFRB) |
Arrival
| Time | 2026-05-04 20:01 |
|---|---|
| Airport | Tarbes-Lourdes-Pyrénées Airport (LFBT) |
| Time | Latitude | Longitude | Altitude | Speed | Heading |
|---|---|---|---|---|---|
| 2026-05-04 18:26 | 48.44587 | -4.41684 | 337 ft | 0 kts | 116° |
| 2026-05-04 18:57 | 48.44589 | -4.41669 | 332 ft | 2 kts | 72° |
| 2026-05-04 18:57 | 48.44623 | -4.41674 | 332 ft | 10 kts | 314° |
| 2026-05-04 18:57 | 48.44626 | -4.41774 | 332 ft | 10 kts | 261° |
| 2026-05-04 18:57 | 48.44608 | -4.41872 | 334 ft | 10 kts | 251° |
| 2026-05-04 18:58 | 48.44586 | -4.41970 | 332 ft | 10 kts | 251° |
| 2026-05-04 18:58 | 48.44575 | -4.42068 | 333 ft | 10 kts | 285° |
| 2026-05-04 18:58 | 48.44626 | -4.42131 | 332 ft | 10 kts | 336° |
| 2026-05-04 18:58 | 48.44688 | -4.42175 | 329 ft | 11 kts | 314° |
| 2026-05-04 18:59 | 48.44678 | -4.42304 | 323 ft | 16 kts | 248° |
| 2026-05-04 18:59 | 48.44633 | -4.42484 | 318 ft | 20 kts | 257° |
| 2026-05-04 18:59 | 48.44599 | -4.42697 | 312 ft | 23 kts | 254° |
| 2026-05-04 18:59 | 48.44551 | -4.42933 | 307 ft | 24 kts | 251° |
| 2026-05-04 19:00 | 48.44497 | -4.43167 | 307 ft | 24 kts | 251° |
| 2026-05-04 19:00 | 48.44443 | -4.43398 | 307 ft | 24 kts | 251° |
| 2026-05-04 19:00 | 48.44389 | -4.43632 | 305 ft | 24 kts | 251° |
| 2026-05-04 19:00 | 48.44378 | -4.43796 | 301 ft | 8 kts | 275° |
| 2026-05-04 19:01 | 48.44355 | -4.43805 | 301 ft | 4 kts | 124° |
| 2026-05-04 19:01 | 48.44388 | -4.43609 | 306 ft | 45 kts | 73° |
| 2026-05-04 19:01 | 48.44576 | -4.42790 | 309 ft | 118 kts | 71° |
| 2026-05-04 19:01 | 48.44910 | -4.41347 | 354 ft | 171 kts | 69° |
| 2026-05-04 19:02 | 48.45298 | -4.39639 | 937 ft | 169 kts | 70° |
| 2026-05-04 19:02 | 48.45458 | -4.37884 | 1491 ft | 176 kts | 105° |
| 2026-05-04 19:02 | 48.44721 | -4.36408 | 2029 ft | 180 kts | 138° |
| 2026-05-04 19:02 | 48.43765 | -4.35169 | 2609 ft | 182 kts | 135° |
| 2026-05-04 19:03 | 48.42834 | -4.33883 | 3192 ft | 182 kts | 134° |
| 2026-05-04 19:03 | 48.41911 | -4.32580 | 3672 ft | 190 kts | 135° |
| 2026-05-04 19:03 | 48.40899 | -4.31132 | 3893 ft | 212 kts | 134° |
| 2026-05-04 19:03 | 48.39771 | -4.29493 | 4064 ft | 239 kts | 134° |
| 2026-05-04 19:04 | 48.38520 | -4.27664 | 4437 ft | 258 kts | 134° |
| 2026-05-04 19:04 | 48.37221 | -4.25747 | 5125 ft | 266 kts | 134° |
| 2026-05-04 19:04 | 48.35895 | -4.23780 | 5872 ft | 269 kts | 134° |
| 2026-05-04 19:04 | 48.34560 | -4.21793 | 6719 ft | 270 kts | 135° |
| 2026-05-04 19:05 | 48.33679 | -4.20477 | 7257 ft | 271 kts | 135° |
| 2026-05-04 19:05 | 48.32322 | -4.18450 | 8115 ft | 272 kts | 135° |
| 2026-05-04 19:05 | 48.30980 | -4.16447 | 8944 ft | 273 kts | 135° |
| 2026-05-04 19:05 | 48.29639 | -4.14443 | 9693 ft | 277 kts | 135° |
| 2026-05-04 19:06 | 48.28200 | -4.12504 | 10302 ft | 281 kts | 148° |
| 2026-05-04 19:06 | 48.26298 | -4.11539 | 10523 ft | 305 kts | 176° |
| 2026-05-04 19:06 | 48.24109 | -4.11814 | 10712 ft | 327 kts | 187° |
| 2026-05-04 19:06 | 48.21783 | -4.12367 | 10909 ft | 351 kts | 188° |
| 2026-05-04 19:07 | 48.19313 | -4.12973 | 11459 ft | 364 kts | 188° |
| 2026-05-04 19:07 | 48.16777 | -4.13592 | 12258 ft | 371 kts | 188° |
| 2026-05-04 19:07 | 48.14224 | -4.14204 | 13274 ft | 373 kts | 188° |
| 2026-05-04 19:07 | 48.11651 | -4.14810 | 14263 ft | 375 kts | 187° |
| 2026-05-04 19:08 | 48.09093 | -4.15404 | 15101 ft | 378 kts | 187° |
| 2026-05-04 19:08 | 48.06473 | -4.16008 | 15897 ft | 383 kts | 187° |
| 2026-05-04 19:08 | 48.03819 | -4.16618 | 16710 ft | 388 kts | 187° |
| 2026-05-04 19:08 | 48.01130 | -4.17234 | 17516 ft | 392 kts | 187° |
| 2026-05-04 19:09 | 47.98419 | -4.17850 | 18320 ft | 394 kts | 186° |
| 2026-05-04 19:09 | 47.95688 | -4.17843 | 18810 ft | 397 kts | 169° |
| 2026-05-04 19:09 | 47.93070 | -4.16555 | 19503 ft | 397 kts | 153° |
| 2026-05-04 19:09 | 47.90624 | -4.14602 | 20120 ft | 401 kts | 151° |
| 2026-05-04 19:10 | 47.88173 | -4.12598 | 20818 ft | 404 kts | 151° |
| 2026-05-04 19:10 | 47.85703 | -4.10594 | 21590 ft | 404 kts | 152° |
| 2026-05-04 19:10 | 47.83219 | -4.08605 | 22373 ft | 406 kts | 152° |
| 2026-05-04 19:10 | 47.80745 | -4.06646 | 23079 ft | 408 kts | 152° |
| 2026-05-04 19:11 | 47.78229 | -4.04668 | 23736 ft | 411 kts | 152° |
| 2026-05-04 19:11 | 47.75694 | -4.02655 | 24258 ft | 415 kts | 150° |
| 2026-05-04 19:11 | 47.73245 | -4.00318 | 24726 ft | 420 kts | 145° |
| 2026-05-04 19:11 | 47.70913 | -3.97637 | 25165 ft | 426 kts | 140° |
| 2026-05-04 19:12 | 47.68714 | -3.94652 | 25638 ft | 431 kts | 138° |
| 2026-05-04 19:12 | 47.64271 | -3.88539 | 26594 ft | 439 kts | 138° |
| 2026-05-04 19:12 | 47.62022 | -3.85454 | 27067 ft | 443 kts | 138° |
| 2026-05-04 19:13 | 47.59744 | -3.82341 | 27511 ft | 447 kts | 138° |
| 2026-05-04 19:13 | 47.57440 | -3.79201 | 27956 ft | 452 kts | 139° |
| 2026-05-04 19:13 | 47.55117 | -3.76046 | 28357 ft | 455 kts | 139° |
| 2026-05-04 19:13 | 47.52768 | -3.72861 | 28768 ft | 460 kts | 139° |
| 2026-05-04 19:14 | 47.50426 | -3.69690 | 29153 ft | 464 kts | 139° |
| 2026-05-04 19:14 | 47.48033 | -3.66456 | 29539 ft | 467 kts | 139° |
| 2026-05-04 19:14 | 47.45623 | -3.63204 | 29927 ft | 470 kts | 139° |
| 2026-05-04 19:14 | 47.43201 | -3.59941 | 30238 ft | 474 kts | 139° |
| 2026-05-04 19:15 | 47.40759 | -3.56653 | 30566 ft | 475 kts | 139° |
| 2026-05-04 19:15 | 47.38314 | -3.53365 | 31010 ft | 474 kts | 139° |
| 2026-05-04 19:15 | 47.35882 | -3.50098 | 31490 ft | 472 kts | 139° |
| 2026-05-04 19:15 | 47.33461 | -3.46850 | 31934 ft | 471 kts | 139° |
| 2026-05-04 19:16 | 47.31039 | -3.43606 | 32342 ft | 470 kts | 139° |
| 2026-05-04 19:16 | 47.28616 | -3.40366 | 32716 ft | 470 kts | 139° |
| 2026-05-04 19:16 | 47.26190 | -3.37125 | 33096 ft | 470 kts | 139° |
| 2026-05-04 19:16 | 47.23770 | -3.33896 | 33490 ft | 469 kts | 139° |
| 2026-05-04 19:17 | 47.21354 | -3.30676 | 33885 ft | 469 kts | 139° |
| 2026-05-04 19:17 | 47.18933 | -3.27454 | 34173 ft | 469 kts | 139° |
| 2026-05-04 19:17 | 47.16504 | -3.24226 | 34432 ft | 470 kts | 139° |
| 2026-05-04 19:17 | 47.14079 | -3.21008 | 34654 ft | 471 kts | 139° |
| 2026-05-04 19:18 | 47.11644 | -3.17781 | 34869 ft | 473 kts | 139° |
| 2026-05-04 19:18 | 47.06719 | -3.11267 | 34957 ft | 477 kts | 139° |
| 2026-05-04 19:19 | 47.01804 | -3.04780 | 34974 ft | 473 kts | 139° |
| 2026-05-04 19:19 | 46.97020 | -2.98482 | 34988 ft | 471 kts | 139° |
| 2026-05-04 19:20 | 46.92149 | -2.92086 | 34985 ft | 470 kts | 140° |
| 2026-05-04 19:20 | 46.87272 | -2.85700 | 34985 ft | 470 kts | 140° |
| 2026-05-04 19:21 | 46.82391 | -2.79325 | 34983 ft | 470 kts | 140° |
| 2026-05-04 19:21 | 46.77499 | -2.72952 | 34982 ft | 471 kts | 140° |
| 2026-05-04 19:22 | 46.72594 | -2.66578 | 34981 ft | 472 kts | 140° |
| 2026-05-04 19:22 | 46.67716 | -2.60255 | 34981 ft | 473 kts | 140° |
| 2026-05-04 19:23 | 46.62792 | -2.53887 | 34978 ft | 473 kts | 140° |
| 2026-05-04 19:23 | 46.57861 | -2.47527 | 34984 ft | 473 kts | 140° |
| 2026-05-04 19:24 | 46.52929 | -2.41182 | 34960 ft | 473 kts | 141° |
| 2026-05-04 19:24 | 46.47996 | -2.34851 | 34973 ft | 472 kts | 141° |
| 2026-05-04 19:25 | 46.43073 | -2.28550 | 34976 ft | 472 kts | 141° |
| 2026-05-04 19:25 | 46.38187 | -2.22311 | 34981 ft | 471 kts | 141° |
| 2026-05-04 19:26 | 46.33272 | -2.16051 | 34980 ft | 470 kts | 141° |
| 2026-05-04 19:26 | 46.28357 | -2.09806 | 34981 ft | 470 kts | 141° |
| 2026-05-04 19:27 | 46.23441 | -2.03576 | 34975 ft | 470 kts | 141° |
| 2026-05-04 19:27 | 46.18584 | -1.97435 | 34966 ft | 469 kts | 141° |
| 2026-05-04 19:28 | 46.13680 | -1.91250 | 34970 ft | 469 kts | 141° |
| 2026-05-04 19:28 | 46.08769 | -1.85072 | 34980 ft | 469 kts | 141° |
| 2026-05-04 19:29 | 46.03869 | -1.78921 | 34979 ft | 469 kts | 141° |
| 2026-05-04 19:29 | 45.98958 | -1.72771 | 34972 ft | 469 kts | 141° |
| 2026-05-04 19:30 | 45.94029 | -1.66613 | 34969 ft | 469 kts | 142° |
| 2026-05-04 19:30 | 45.89145 | -1.60378 | 34977 ft | 470 kts | 141° |
| 2026-05-04 19:31 | 45.84302 | -1.54066 | 34964 ft | 470 kts | 141° |
| 2026-05-04 19:31 | 45.79456 | -1.47767 | 34970 ft | 470 kts | 141° |
| 2026-05-04 19:32 | 45.74601 | -1.41497 | 34969 ft | 470 kts | 141° |
| 2026-05-04 19:32 | 45.69764 | -1.35295 | 34970 ft | 469 kts | 143° |
| 2026-05-04 19:33 | 45.64401 | -1.30069 | 34975 ft | 465 kts | 154° |
| 2026-05-04 19:33 | 45.58558 | -1.26180 | 34969 ft | 463 kts | 158° |
| 2026-05-04 19:34 | 45.52660 | -1.22479 | 34969 ft | 463 kts | 159° |
| 2026-05-04 19:34 | 45.46763 | -1.18756 | 34969 ft | 464 kts | 158° |
| 2026-05-04 19:35 | 45.40859 | -1.15009 | 34958 ft | 464 kts | 158° |
| 2026-05-04 19:35 | 45.34976 | -1.11273 | 34970 ft | 463 kts | 158° |
| 2026-05-04 19:36 | 45.29091 | -1.07545 | 34973 ft | 463 kts | 159° |
| 2026-05-04 19:36 | 45.23212 | -1.03830 | 34979 ft | 462 kts | 159° |
| 2026-05-04 19:37 | 45.17357 | -1.00140 | 34965 ft | 462 kts | 159° |
| 2026-05-04 19:37 | 45.11577 | -0.96505 | 34977 ft | 462 kts | 159° |
| 2026-05-04 19:38 | 45.05705 | -0.92820 | 34969 ft | 461 kts | 159° |
| 2026-05-04 19:38 | 45.02776 | -0.90984 | 34791 ft | 459 kts | 159° |
| 2026-05-04 19:38 | 44.99862 | -0.89161 | 34545 ft | 459 kts | 159° |
| 2026-05-04 19:38 | 44.96930 | -0.87329 | 34280 ft | 460 kts | 159° |
| 2026-05-04 19:39 | 44.94003 | -0.85501 | 34021 ft | 460 kts | 159° |
| 2026-05-04 19:39 | 44.91068 | -0.83671 | 33727 ft | 460 kts | 159° |
| 2026-05-04 19:39 | 44.88136 | -0.81844 | 33391 ft | 459 kts | 159° |
| 2026-05-04 19:39 | 44.85200 | -0.80018 | 32403 ft | 463 kts | 159° |
| 2026-05-04 19:40 | 44.82285 | -0.78207 | 31549 ft | 461 kts | 159° |
| 2026-05-04 19:40 | 44.79354 | -0.76387 | 30740 ft | 458 kts | 159° |
| 2026-05-04 19:40 | 44.76466 | -0.74593 | 30120 ft | 450 kts | 159° |
| 2026-05-04 19:40 | 44.73622 | -0.72829 | 29399 ft | 443 kts | 159° |
| 2026-05-04 19:41 | 44.70820 | -0.71093 | 28750 ft | 436 kts | 159° |
| 2026-05-04 19:41 | 44.68062 | -0.69387 | 28139 ft | 430 kts | 159° |
| 2026-05-04 19:41 | 44.65338 | -0.67705 | 27517 ft | 424 kts | 159° |
| 2026-05-04 19:41 | 44.62650 | -0.66047 | 26934 ft | 420 kts | 159° |
| 2026-05-04 19:42 | 44.59987 | -0.64406 | 26321 ft | 416 kts | 159° |
| 2026-05-04 19:42 | 44.57352 | -0.62785 | 25750 ft | 412 kts | 159° |
| 2026-05-04 19:42 | 44.54741 | -0.61179 | 25186 ft | 409 kts | 159° |
| 2026-05-04 19:42 | 44.52143 | -0.59584 | 24629 ft | 406 kts | 159° |
| 2026-05-04 19:43 | 44.49595 | -0.58020 | 24076 ft | 403 kts | 159° |
| 2026-05-04 19:43 | 44.47024 | -0.56444 | 23510 ft | 402 kts | 159° |
| 2026-05-04 19:43 | 44.44464 | -0.54876 | 22865 ft | 400 kts | 159° |
| 2026-05-04 19:43 | 44.41928 | -0.53324 | 22286 ft | 397 kts | 159° |
| 2026-05-04 19:44 | 44.39409 | -0.51783 | 21745 ft | 394 kts | 159° |
| 2026-05-04 19:44 | 44.36902 | -0.50251 | 21212 ft | 391 kts | 159° |
| 2026-05-04 19:44 | 44.34416 | -0.48733 | 20671 ft | 389 kts | 159° |
| 2026-05-04 19:44 | 44.31968 | -0.47241 | 20159 ft | 387 kts | 159° |
| 2026-05-04 19:45 | 44.29505 | -0.45741 | 19628 ft | 386 kts | 159° |
| 2026-05-04 19:45 | 44.27036 | -0.44238 | 19118 ft | 385 kts | 159° |
| 2026-05-04 19:45 | 44.24582 | -0.42746 | 18581 ft | 384 kts | 159° |
| 2026-05-04 19:45 | 44.22135 | -0.41260 | 18040 ft | 384 kts | 159° |
| 2026-05-04 19:46 | 44.19688 | -0.39775 | 17452 ft | 383 kts | 159° |
| 2026-05-04 19:46 | 44.17247 | -0.38294 | 16915 ft | 382 kts | 159° |
| 2026-05-04 19:46 | 44.14813 | -0.36819 | 16369 ft | 381 kts | 159° |
| 2026-05-04 19:46 | 44.12383 | -0.35348 | 15849 ft | 380 kts | 159° |
| 2026-05-04 19:47 | 44.09961 | -0.33883 | 15315 ft | 379 kts | 159° |
| 2026-05-04 19:47 | 44.07546 | -0.32424 | 14802 ft | 378 kts | 159° |
| 2026-05-04 19:47 | 44.05131 | -0.30966 | 14281 ft | 378 kts | 158° |
| 2026-05-04 19:47 | 44.02719 | -0.29511 | 13768 ft | 378 kts | 158° |
| 2026-05-04 19:48 | 44.00310 | -0.28059 | 13178 ft | 378 kts | 159° |
| 2026-05-04 19:48 | 43.97902 | -0.26609 | 12692 ft | 375 kts | 158° |
| 2026-05-04 19:48 | 43.95556 | -0.25196 | 12337 ft | 368 kts | 158° |
| 2026-05-04 19:48 | 43.93236 | -0.23800 | 12001 ft | 359 kts | 159° |
| 2026-05-04 19:49 | 43.90964 | -0.22434 | 11688 ft | 351 kts | 159° |
| 2026-05-04 19:49 | 43.88740 | -0.21099 | 11302 ft | 346 kts | 159° |
| 2026-05-04 19:49 | 43.86534 | -0.19777 | 10808 ft | 344 kts | 159° |
| 2026-05-04 19:49 | 43.84341 | -0.18464 | 10380 ft | 342 kts | 159° |
| 2026-05-04 19:50 | 43.82204 | -0.17183 | 10295 ft | 327 kts | 159° |
| 2026-05-04 19:50 | 43.80157 | -0.15956 | 10208 ft | 314 kts | 159° |
| 2026-05-04 19:50 | 43.78188 | -0.14778 | 10109 ft | 302 kts | 159° |
| 2026-05-04 19:50 | 43.76301 | -0.13649 | 9989 ft | 291 kts | 159° |
| 2026-05-04 19:51 | 43.74464 | -0.12554 | 9743 ft | 284 kts | 159° |
| 2026-05-04 19:51 | 43.72659 | -0.11480 | 9375 ft | 282 kts | 159° |
| 2026-05-04 19:51 | 43.70861 | -0.10408 | 8940 ft | 282 kts | 159° |
| 2026-05-04 19:51 | 43.69063 | -0.09339 | 8522 ft | 281 kts | 158° |
| 2026-05-04 19:52 | 43.67262 | -0.08269 | 8103 ft | 281 kts | 158° |
| 2026-05-04 19:52 | 43.66071 | -0.07559 | 7828 ft | 281 kts | 159° |
| 2026-05-04 19:52 | 43.64278 | -0.06490 | 7410 ft | 282 kts | 159° |
| 2026-05-04 19:52 | 43.62475 | -0.05422 | 7073 ft | 282 kts | 158° |
| 2026-05-04 19:53 | 43.60676 | -0.04353 | 7029 ft | 283 kts | 159° |
| 2026-05-04 19:53 | 43.58867 | -0.03279 | 7004 ft | 282 kts | 159° |
| 2026-05-04 19:53 | 43.57076 | -0.02218 | 6888 ft | 278 kts | 158° |
| 2026-05-04 19:53 | 43.54737 | -0.00831 | 6475 ft | 276 kts | 158° |
| 2026-05-04 19:54 | 43.53545 | -0.00124 | 6164 ft | 277 kts | 159° |
| 2026-05-04 19:54 | 43.51812 | 0.00903 | 5655 ft | 280 kts | 159° |
| 2026-05-04 19:54 | 43.50025 | 0.01959 | 5249 ft | 278 kts | 158° |
| 2026-05-04 19:54 | 43.48257 | 0.03005 | 4925 ft | 275 kts | 159° |
| 2026-05-04 19:55 | 43.46507 | 0.04040 | 4499 ft | 274 kts | 158° |
| 2026-05-04 19:55 | 43.44759 | 0.05073 | 4112 ft | 272 kts | 158° |
| 2026-05-04 19:55 | 43.43058 | 0.06078 | 3858 ft | 266 kts | 159° |
| 2026-05-04 19:55 | 43.41382 | 0.07068 | 3628 ft | 257 kts | 159° |
| 2026-05-04 19:56 | 43.39768 | 0.08019 | 3379 ft | 249 kts | 159° |
| 2026-05-04 19:56 | 43.38211 | 0.08841 | 3221 ft | 230 kts | 173° |
| 2026-05-04 19:56 | 43.36702 | 0.08706 | 3012 ft | 210 kts | 198° |
| 2026-05-04 19:56 | 43.35279 | 0.08164 | 2998 ft | 211 kts | 201° |
| 2026-05-04 19:57 | 43.33899 | 0.07524 | 2969 ft | 207 kts | 204° |
| 2026-05-04 19:57 | 43.32564 | 0.06848 | 2959 ft | 203 kts | 205° |
| 2026-05-04 19:57 | 43.31237 | 0.06168 | 2978 ft | 200 kts | 204° |
| 2026-05-04 19:57 | 43.29958 | 0.05517 | 2951 ft | 190 kts | 204° |
| 2026-05-04 19:58 | 43.28756 | 0.04904 | 2947 ft | 184 kts | 205° |
| 2026-05-04 19:58 | 43.27559 | 0.04293 | 2950 ft | 184 kts | 205° |
| 2026-05-04 19:58 | 43.26343 | 0.03672 | 2735 ft | 188 kts | 205° |
| 2026-05-04 19:58 | 43.25133 | 0.03058 | 2477 ft | 180 kts | 205° |
| 2026-05-04 19:59 | 43.24017 | 0.02492 | 2242 ft | 160 kts | 206° |
| 2026-05-04 19:59 | 43.23021 | 0.01984 | 2018 ft | 149 kts | 206° |
| 2026-05-04 19:59 | 43.22038 | 0.01482 | 1835 ft | 154 kts | 201° |
| 2026-05-04 19:59 | 43.21028 | 0.00971 | 1638 ft | 155 kts | 202° |
| 2026-05-04 20:00 | 43.20021 | 0.00463 | 1396 ft | 153 kts | 203° |
| 2026-05-04 20:00 | 43.19032 | -0.00045 | 1214 ft | 151 kts | 202° |
| 2026-05-04 20:00 | 43.18118 | -0.00508 | 1219 ft | 119 kts | 200° |
| 2026-05-04 20:00 | 43.17428 | -0.00856 | 1248 ft | 97 kts | 198° |
| 2026-05-04 20:01 | 43.17144 | -0.00984 | 1251 ft | 21 kts | 174° |
| 2026-05-04 20:01 | 43.17073 | -0.00861 | 1259 ft | 0 kts | 109° |
| 2026-05-04 20:01 | 43.17072 | -0.00854 | 1262 ft | 3 kts | 109° |
| 2026-05-04 20:02 | 43.17074 | -0.00788 | 1260 ft | 11 kts | 62° |
| 2026-05-04 20:02 | 43.17171 | -0.00720 | 1256 ft | 21 kts | 19° |
| 2026-05-04 20:02 | 43.17335 | -0.00637 | 1247 ft | 25 kts | 21° |
| 2026-05-04 20:02 | 43.17494 | -0.00558 | 1232 ft | 23 kts | 19° |
| 2026-05-04 20:03 | 43.17640 | -0.00472 | 1228 ft | 21 kts | 25° |
| 2026-05-04 20:03 | 43.17771 | -0.00377 | 1224 ft | 22 kts | 28° |
| 2026-05-04 20:03 | 43.17906 | -0.00276 | 1220 ft | 23 kts | 28° |
| 2026-05-04 20:03 | 43.18049 | -0.00168 | 1216 ft | 24 kts | 29° |
| 2026-05-04 20:04 | 43.18194 | -0.00057 | 1211 ft | 24 kts | 29° |
| 2026-05-04 20:04 | 43.18334 | 0.00052 | 1218 ft | 23 kts | 29° |
| 2026-05-04 20:04 | 43.18425 | 0.00181 | 1211 ft | 18 kts | 96° |
| 2026-05-04 20:04 | 43.18407 | 0.00312 | 1211 ft | 13 kts | 76° |
| 2026-05-04 20:05 | 43.18465 | 0.00366 | 1209 ft | 2 kts | 2° |
| 2026-05-04 20:05 | 43.18470 | 0.00366 | 1209 ft | 0 kts | 3° |